Greenbush, Michigan
Current Conditions -  °F | °C
As of 8:14 AM on Sunday 23 Nov 2014 (Local Time) from KOSC Reporting Station
Haze Haze  
Wind Chill: 40°   Ceiling: 1200
Heat Index: 44°   Visibility: 4mi
Dew Point: 44°   Wind: 6mph
Humidity: 100%   Direction: 190°S
Pressure: 29.83"   Gusts: NA
Location:  44.59°N, 83.32°W
Report Text: KOSC 231314Z AUTO 19005KT 4SM BR OVC012 06/06 A2983 RMK AO2 T00650065
Loading
Personal Weather Stations






























Interactive Weather Map New forecast layout! Learn more

10-Day Weather Forecast

Advertisements
Track Severe Weather on mobile